sensor_id;sensor_type;location;lat;lon;timestamp;P1;durP1;ratioP1;P2;durP2;ratioP2
71095;SDS011;58753;49.440;11.126;2024-03-23T00:54:17;4.90;;;1.70;;
71095;SDS011;58753;49.440;11.126;2024-03-23T00:56:43;2.73;;;1.30;;
71095;SDS011;58753;49.440;11.126;2024-03-23T00:59:08;1.83;;;1.10;;
71095;SDS011;58753;49.440;11.126;2024-03-23T01:01:33;2.30;;;1.20;;
71095;SDS011;58753;49.440;11.126;2024-03-23T01:03:59;4.33;;;1.60;;
71095;SDS011;58753;49.440;11.126;2024-03-23T01:06:24;2.73;;;1.50;;
71095;SDS011;58753;49.440;11.126;2024-03-23T01:08:50;3.63;;;1.07;;
71095;SDS011;58753;49.440;11.126;2024-03-23T01:11:15;2.05;;;0.95;;
71095;SDS011;58753;49.440;11.126;2024-03-23T01:13:41;1.60;;;1.03;;
71095;SDS011;58753;49.440;11.126;2024-03-23T01:16:06;0.87;;;0.77;;
71095;SDS011;58753;49.440;11.126;2024-03-23T01:18:31;4.50;;;1.40;;
71095;SDS011;58753;49.440;11.126;2024-03-23T01:20:58;1.75;;;1.00;;
71095;SDS011;58753;49.440;11.126;2024-03-23T01:23:23;1.80;;;0.73;;
71095;SDS011;58753;49.440;11.126;2024-03-23T01:25:52;1.23;;;0.80;;
71095;SDS011;58753;49.440;11.126;2024-03-23T01:28:19;3.13;;;0.97;;
71095;SDS011;58753;49.440;11.126;2024-03-23T01:30:47;2.45;;;0.93;;
71095;SDS011;58753;49.440;11.126;2024-03-23T01:33:13;4.03;;;1.35;;
71095;SDS011;58753;49.440;11.126;2024-03-23T01:35:39;3.97;;;1.50;;
71095;SDS011;58753;49.440;11.126;2024-03-23T01:38:04;2.17;;;1.10;;
71095;SDS011;58753;49.440;11.126;2024-03-23T01:40:29;1.50;;;1.00;;
71095;SDS011;58753;49.440;11.126;2024-03-23T01:42:58;1.95;;;1.30;;
71095;SDS011;58753;49.440;11.126;2024-03-23T01:45:28;1.17;;;0.63;;
71095;SDS011;58753;49.440;11.126;2024-03-23T01:47:55;3.08;;;1.67;;
71095;SDS011;58753;49.440;11.126;2024-03-23T01:50:20;15.40;;;1.37;;
71095;SDS011;58753;49.440;11.126;2024-03-23T01:52:46;1.00;;;0.57;;
71095;SDS011;58753;49.440;11.126;2024-03-23T01:55:12;2.15;;;1.38;;
71095;SDS011;58753;49.440;11.126;2024-03-23T01:57:37;3.10;;;1.37;;
71095;SDS011;58753;49.440;11.126;2024-03-23T02:00:03;2.63;;;1.10;;
71095;SDS011;58753;49.440;11.126;2024-03-23T02:02:29;1.73;;;0.70;;
71095;SDS011;58753;49.440;11.126;2024-03-23T02:04:55;2.07;;;1.10;;
71095;SDS011;58753;49.440;11.126;2024-03-23T02:07:20;2.30;;;1.00;;
71095;SDS011;58753;49.440;11.126;2024-03-23T02:09:46;2.47;;;1.00;;
71095;SDS011;58753;49.440;11.126;2024-03-23T02:12:11;4.20;;;1.47;;
71095;SDS011;58753;49.440;11.126;2024-03-23T02:14:36;4.23;;;1.00;;
71095;SDS011;58753;49.440;11.126;2024-03-23T02:17:02;2.13;;;0.90;;
71095;SDS011;58753;49.440;11.126;2024-03-23T02:19:27;1.40;;;0.90;;
71095;SDS011;58753;49.440;11.126;2024-03-23T02:21:53;2.65;;;0.90;;
71095;SDS011;58753;49.440;11.126;2024-03-23T02:24:18;2.50;;;0.70;;
71095;SDS011;58753;49.440;11.126;2024-03-23T02:26:43;2.00;;;0.83;;
71095;SDS011;58753;49.440;11.126;2024-03-23T02:29:09;3.57;;;0.97;;
71095;SDS011;58753;49.440;11.126;2024-03-23T02:31:35;1.65;;;0.80;;
71095;SDS011;58753;49.440;11.126;2024-03-23T02:34:01;2.70;;;0.77;;
71095;SDS011;58753;49.440;11.126;2024-03-23T02:36:26;4.30;;;1.27;;
71095;SDS011;58753;49.440;11.126;2024-03-23T02:38:51;2.93;;;1.17;;
71095;SDS011;58753;49.440;11.126;2024-03-23T02:41:17;11.33;;;1.33;;
71095;SDS011;58753;49.440;11.126;2024-03-23T02:43:48;2.78;;;1.30;;
71095;SDS011;58753;49.440;11.126;2024-03-23T02:46:16;1.85;;;0.90;;
71095;SDS011;58753;49.440;11.126;2024-03-23T02:48:42;2.37;;;1.33;;
71095;SDS011;58753;49.440;11.126;2024-03-23T02:51:07;1.48;;;0.82;;
71095;SDS011;58753;49.440;11.126;2024-03-23T02:53:33;2.50;;;1.00;;
71095;SDS011;58753;49.440;11.126;2024-03-23T02:55:59;3.77;;;1.23;;
71095;SDS011;58753;49.440;11.126;2024-03-23T02:58:24;6.75;;;1.30;;
71095;SDS011;58753;49.440;11.126;2024-03-23T03:00:49;2.97;;;1.43;;
71095;SDS011;58753;49.440;11.126;2024-03-23T03:03:15;1.90;;;1.23;;
71095;SDS011;58753;49.440;11.126;2024-03-23T03:05:40;1.60;;;0.93;;
71095;SDS011;58753;49.440;11.126;2024-03-23T03:08:06;2.33;;;0.77;;
71095;SDS011;58753;49.440;11.126;2024-03-23T03:10:31;1.35;;;0.80;;
71095;SDS011;58753;49.440;11.126;2024-03-23T03:13:00;1.88;;;0.70;;
71095;SDS011;58753;49.440;11.126;2024-03-23T03:15:25;1.63;;;0.97;;
71095;SDS011;58753;49.440;11.126;2024-03-23T03:17:51;1.92;;;0.70;;
71095;SDS011;58753;49.440;11.126;2024-03-23T03:20:16;1.63;;;1.03;;
71095;SDS011;58753;49.440;11.126;2024-03-23T03:22:43;2.75;;;0.75;;
71095;SDS011;58753;49.440;11.126;2024-03-23T03:25:08;2.13;;;0.80;;
71095;SDS011;58753;49.440;11.126;2024-03-23T03:27:34;2.20;;;1.13;;
71095;SDS011;58753;49.440;11.126;2024-03-23T03:29:59;2.13;;;0.90;;
71095;SDS011;58753;49.440;11.126;2024-03-23T03:32:28;3.60;;;0.93;;
71095;SDS011;58753;49.440;11.126;2024-03-23T03:34:54;3.72;;;1.30;;
71095;SDS011;58753;49.440;11.126;2024-03-23T03:37:19;2.30;;;1.20;;
71095;SDS011;58753;49.440;11.126;2024-03-23T03:39:45;2.23;;;1.40;;
71095;SDS011;58753;49.440;11.126;2024-03-23T03:42:10;5.33;;;1.63;;
71095;SDS011;58753;49.440;11.126;2024-03-23T03:44:36;5.00;;;0.85;;
71095;SDS011;58753;49.440;11.126;2024-03-23T03:47:02;2.63;;;1.20;;
71095;SDS011;58753;49.440;11.126;2024-03-23T03:49:27;2.03;;;1.25;;
71095;SDS011;58753;49.440;11.126;2024-03-23T03:51:53;4.17;;;1.33;;
71095;SDS011;58753;49.440;11.126;2024-03-23T03:54:18;2.70;;;1.13;;
71095;SDS011;58753;49.440;11.126;2024-03-23T03:56:43;3.97;;;1.42;;
71095;SDS011;58753;49.440;11.126;2024-03-23T03:59:09;3.27;;;1.23;;
71095;SDS011;58753;49.440;11.126;2024-03-23T04:01:34;2.40;;;1.70;;
71095;SDS011;58753;49.440;11.126;2024-03-23T04:04:01;3.85;;;2.13;;
71095;SDS011;58753;49.440;11.126;2024-03-23T04:06:26;3.67;;;1.77;;
71095;SDS011;58753;49.440;11.126;2024-03-23T04:08:52;5.60;;;2.40;;
71095;SDS011;58753;49.440;11.126;2024-03-23T04:11:17;9.50;;;2.03;;
71095;SDS011;58753;49.440;11.126;2024-03-23T04:13:43;3.10;;;1.90;;
71095;SDS011;58753;49.440;11.126;2024-03-23T04:16:08;5.20;;;2.30;;
71095;SDS011;58753;49.440;11.126;2024-03-23T04:18:36;6.13;;;1.87;;
71095;SDS011;58753;49.440;11.126;2024-03-23T04:21:02;5.22;;;2.78;;
71095;SDS011;58753;49.440;11.126;2024-03-23T04:23:27;4.73;;;2.77;;
71095;SDS011;58753;49.440;11.126;2024-03-23T04:25:53;4.37;;;2.23;;
71095;SDS011;58753;49.440;11.126;2024-03-23T04:28:18;5.28;;;1.88;;
71095;SDS011;58753;49.440;11.126;2024-03-23T04:30:44;4.27;;;2.07;;
71095;SDS011;58753;49.440;11.126;2024-03-23T04:33:09;3.70;;;1.43;;
71095;SDS011;58753;49.440;11.126;2024-03-23T04:35:35;4.68;;;2.28;;
71095;SDS011;58753;49.440;11.126;2024-03-23T04:38:00;3.90;;;2.13;;
71095;SDS011;58753;49.440;11.126;2024-03-23T04:40:26;3.25;;;1.77;;
71095;SDS011;58753;49.440;11.126;2024-03-23T04:42:51;3.70;;;1.70;;
71095;SDS011;58753;49.440;11.126;2024-03-23T04:45:17;3.90;;;1.57;;
71095;SDS011;58753;49.440;11.126;2024-03-23T04:47:42;3.47;;;2.00;;
71095;SDS011;58753;49.440;11.126;2024-03-23T04:50:08;2.88;;;1.73;;
71095;SDS011;58753;49.440;11.126;2024-03-23T04:52:35;4.60;;;2.03;;
71095;SDS011;58753;49.440;11.126;2024-03-23T04:55:01;4.47;;;2.00;;
71095;SDS011;58753;49.440;11.126;2024-03-23T04:57:26;3.03;;;1.67;;
71095;SDS011;58753;49.440;11.126;2024-03-23T04:59:52;3.90;;;1.47;;
71095;SDS011;58753;49.440;11.126;2024-03-23T05:02:17;6.50;;;2.97;;
71095;SDS011;58753;49.440;11.126;2024-03-23T05:04:42;2.20;;;1.93;;
71095;SDS011;58753;49.440;11.126;2024-03-23T05:07:08;2.50;;;1.37;;
71095;SDS011;58753;49.440;11.126;2024-03-23T05:09:33;4.22;;;2.13;;
71095;SDS011;58753;49.440;11.126;2024-03-23T05:11:59;4.30;;;1.60;;
71095;SDS011;58753;49.440;11.126;2024-03-23T05:14:28;3.65;;;1.90;;
71095;SDS011;58753;49.440;11.126;2024-03-23T05:16:53;2.73;;;1.80;;
71095;SDS011;58753;49.440;11.126;2024-03-23T05:19:19;2.08;;;1.45;;
71095;SDS011;58753;49.440;11.126;2024-03-23T05:21:45;3.00;;;1.70;;
71095;SDS011;58753;49.440;11.126;2024-03-23T05:24:11;9.85;;;2.28;;
71095;SDS011;58753;49.440;11.126;2024-03-23T05:26:37;3.57;;;2.47;;
71095;SDS011;58753;49.440;11.126;2024-03-23T05:29:02;2.97;;;1.65;;
71095;SDS011;58753;49.440;11.126;2024-03-23T05:31:29;6.47;;;1.93;;
71095;SDS011;58753;49.440;11.126;2024-03-23T05:33:56;2.60;;;1.48;;
71095;SDS011;58753;49.440;11.126;2024-03-23T05:36:21;2.63;;;1.47;;
71095;SDS011;58753;49.440;11.126;2024-03-23T05:38:47;4.85;;;1.70;;
71095;SDS011;58753;49.440;11.126;2024-03-23T05:41:12;2.83;;;1.65;;
71095;SDS011;58753;49.440;11.126;2024-03-23T05:43:38;3.37;;;1.33;;
71095;SDS011;58753;49.440;11.126;2024-03-23T05:46:03;5.27;;;1.63;;
71095;SDS011;58753;49.440;11.126;2024-03-23T05:48:32;4.50;;;1.05;;
71095;SDS011;58753;49.440;11.126;2024-03-23T05:50:58;3.47;;;1.40;;
71095;SDS011;58753;49.440;11.126;2024-03-23T05:53:24;3.90;;;1.40;;
71095;SDS011;58753;49.440;11.126;2024-03-23T05:55:50;3.15;;;1.23;;
71095;SDS011;58753;49.440;11.126;2024-03-23T05:58:16;4.43;;;0.90;;
71095;SDS011;58753;49.440;11.126;2024-03-23T06:00:42;3.35;;;1.27;;
71095;SDS011;58753;49.440;11.126;2024-03-23T06:03:08;2.75;;;1.30;;
71095;SDS011;58753;49.440;11.126;2024-03-23T06:05:34;2.35;;;1.00;;
71095;SDS011;58753;49.440;11.126;2024-03-23T06:08:00;1.77;;;0.97;;
71095;SDS011;58753;49.440;11.126;2024-03-23T06:10:25;3.13;;;1.35;;
71095;SDS011;58753;49.440;11.126;2024-03-23T06:12:51;3.17;;;1.27;;
71095;SDS011;58753;49.440;11.126;2024-03-23T06:15:20;3.22;;;0.98;;
71095;SDS011;58753;49.440;11.126;2024-03-23T06:17:47;2.25;;;1.35;;
71095;SDS011;58753;49.440;11.126;2024-03-23T06:20:13;2.47;;;1.17;;
71095;SDS011;58753;49.440;11.126;2024-03-23T06:22:38;3.07;;;1.50;;
71095;SDS011;58753;49.440;11.126;2024-03-23T06:25:04;4.38;;;1.80;;
71095;SDS011;58753;49.440;11.126;2024-03-23T06:27:30;1.60;;;0.95;;
71095;SDS011;58753;49.440;11.126;2024-03-23T06:29:57;3.30;;;2.10;;
71095;SDS011;58753;49.440;11.126;2024-03-23T06:32:23;2.30;;;1.45;;
71095;SDS011;58753;49.440;11.126;2024-03-23T06:34:48;3.90;;;1.60;;
71095;SDS011;58753;49.440;11.126;2024-03-23T06:37:14;2.30;;;1.60;;
71095;SDS011;58753;49.440;11.126;2024-03-23T06:39:39;7.93;;;2.60;;
71095;SDS011;58753;49.440;11.126;2024-03-23T06:42:04;4.37;;;1.93;;
71095;SDS011;58753;49.440;11.126;2024-03-23T06:44:30;3.67;;;2.05;;
71095;SDS011;58753;49.440;11.126;2024-03-23T06:46:56;5.97;;;3.03;;
71095;SDS011;58753;49.440;11.126;2024-03-23T06:49:22;5.18;;;2.60;;
71095;SDS011;58753;49.440;11.126;2024-03-23T06:51:48;3.47;;;1.92;;
71095;SDS011;58753;49.440;11.126;2024-03-23T06:54:13;2.83;;;1.80;;
71095;SDS011;58753;49.440;11.126;2024-03-23T06:56:39;4.40;;;1.92;;
71095;SDS011;58753;49.440;11.126;2024-03-23T06:59:05;5.33;;;2.97;;
71095;SDS011;58753;49.440;11.126;2024-03-23T07:01:30;3.03;;;1.77;;
71095;SDS011;58753;49.440;11.126;2024-03-23T07:03:56;5.60;;;1.57;;
71095;SDS011;58753;49.440;11.126;2024-03-23T07:06:21;3.53;;;1.43;;
71095;SDS011;58753;49.440;11.126;2024-03-23T07:08:47;4.88;;;2.63;;
71095;SDS011;58753;49.440;11.126;2024-03-23T07:11:18;5.77;;;2.43;;
71095;SDS011;58753;49.440;11.126;2024-03-23T07:13:45;3.95;;;1.60;;
71095;SDS011;58753;49.440;11.126;2024-03-23T07:16:10;3.37;;;1.70;;
71095;SDS011;58753;49.440;11.126;2024-03-23T07:18:35;4.67;;;1.63;;
71095;SDS011;58753;49.440;11.126;2024-03-23T07:21:01;5.30;;;2.10;;
71095;SDS011;58753;49.440;11.126;2024-03-23T07:23:26;5.20;;;2.23;;
71095;SDS011;58753;49.440;11.126;2024-03-23T07:28:27;3.97;;;2.05;;
71095;SDS011;58753;49.440;11.126;2024-03-23T07:33:48;2.37;;;1.10;;
71095;SDS011;58753;49.440;11.126;2024-03-23T07:36:14;2.35;;;1.60;;
71095;SDS011;58753;49.440;11.126;2024-03-23T07:38:43;3.42;;;2.10;;
71095;SDS011;58753;49.440;11.126;2024-03-23T07:41:15;1.75;;;1.10;;
71095;SDS011;58753;49.440;11.126;2024-03-23T07:43:45;2.80;;;1.83;;
71095;SDS011;58753;49.440;11.126;2024-03-23T07:46:11;3.93;;;1.67;;
71095;SDS011;58753;49.440;11.126;2024-03-23T07:48:37;2.42;;;1.17;;
71095;SDS011;58753;49.440;11.126;2024-03-23T07:51:05;2.70;;;1.13;;
71095;SDS011;58753;49.440;11.126;2024-03-23T07:53:32;3.13;;;1.10;;
71095;SDS011;58753;49.440;11.126;2024-03-23T07:56:00;3.63;;;1.50;;
71095;SDS011;58753;49.440;11.126;2024-03-23T07:58:27;3.87;;;1.70;;
71095;SDS011;58753;49.440;11.126;2024-03-23T08:00:53;3.72;;;1.27;;
71095;SDS011;58753;49.440;11.126;2024-03-23T08:03:19;3.83;;;1.50;;
71095;SDS011;58753;49.440;11.126;2024-03-23T08:05:44;4.37;;;1.10;;
71095;SDS011;58753;49.440;11.126;2024-03-23T08:08:10;3.85;;;2.17;;
71095;SDS011;58753;49.440;11.126;2024-03-23T08:10:36;3.93;;;1.07;;
71095;SDS011;58753;49.440;11.126;2024-03-23T08:13:03;2.00;;;1.25;;
71095;SDS011;58753;49.440;11.126;2024-03-23T08:15:31;2.27;;;1.20;;
71095;SDS011;58753;49.440;11.126;2024-03-23T08:17:59;2.95;;;1.27;;
71095;SDS011;58753;49.440;11.126;2024-03-23T08:20:25;4.57;;;1.60;;
71095;SDS011;58753;49.440;11.126;2024-03-23T08:22:50;3.28;;;1.13;;
71095;SDS011;58753;49.440;11.126;2024-03-23T08:25:16;2.20;;;0.87;;
71095;SDS011;58753;49.440;11.126;2024-03-23T08:27:41;3.33;;;1.47;;
71095;SDS011;58753;49.440;11.126;2024-03-23T08:30:10;1.25;;;0.55;;
71095;SDS011;58753;49.440;11.126;2024-03-23T08:32:36;1.95;;;0.98;;
71095;SDS011;58753;49.440;11.126;2024-03-23T08:35:01;1.45;;;0.75;;
71095;SDS011;58753;49.440;11.126;2024-03-23T08:37:27;2.23;;;0.47;;
71095;SDS011;58753;49.440;11.126;2024-03-23T08:39:52;0.83;;;0.33;;
71095;SDS011;58753;49.440;11.126;2024-03-23T08:42:18;1.83;;;0.70;;
71095;SDS011;58753;49.440;11.126;2024-03-23T08:44:43;0.87;;;0.50;;
71095;SDS011;58753;49.440;11.126;2024-03-23T08:47:11;1.77;;;0.63;;
71095;SDS011;58753;49.440;11.126;2024-03-23T08:49:37;1.30;;;0.30;;
71095;SDS011;58753;49.440;11.126;2024-03-23T08:52:02;1.27;;;0.80;;
71095;SDS011;58753;49.440;11.126;2024-03-23T08:54:28;1.17;;;0.50;;
71095;SDS011;58753;49.440;11.126;2024-03-23T08:56:55;1.07;;;0.50;;
71095;SDS011;58753;49.440;11.126;2024-03-23T08:59:20;1.27;;;0.43;;
71095;SDS011;58753;49.440;11.126;2024-03-23T09:01:46;0.90;;;0.50;;
71095;SDS011;58753;49.440;11.126;2024-03-23T09:04:11;0.97;;;0.43;;
71095;SDS011;58753;49.440;11.126;2024-03-23T09:06:37;0.63;;;0.40;;
71095;SDS011;58753;49.440;11.126;2024-03-23T09:09:02;0.68;;;0.43;;
71095;SDS011;58753;49.440;11.126;2024-03-23T09:11:28;0.80;;;0.40;;
71095;SDS011;58753;49.440;11.126;2024-03-23T09:13:53;0.73;;;0.30;;
71095;SDS011;58753;49.440;11.126;2024-03-23T09:16:19;0.60;;;0.40;;
71095;SDS011;58753;49.440;11.126;2024-03-23T09:18:44;2.20;;;0.40;;
71095;SDS011;58753;49.440;11.126;2024-03-23T09:21:13;4.38;;;0.65;;
71095;SDS011;58753;49.440;11.126;2024-03-23T09:23:39;0.40;;;0.17;;
71095;SDS011;58753;49.440;11.126;2024-03-23T09:26:05;0.63;;;0.30;;
71095;SDS011;58753;49.440;11.126;2024-03-23T09:28:32;0.57;;;0.20;;
71095;SDS011;58753;49.440;11.126;2024-03-23T09:31:08;0.30;;;0.10;;
71095;SDS011;58753;49.440;11.126;2024-03-23T09:33:35;0.70;;;0.20;;
71095;SDS011;58753;49.440;11.126;2024-03-23T09:36:04;1.48;;;0.20;;
71095;SDS011;58753;49.440;11.126;2024-03-23T09:38:30;0.65;;;0.30;;
71095;SDS011;58753;49.440;11.126;2024-03-23T09:40:55;0.50;;;0.30;;
71095;SDS011;58753;49.440;11.126;2024-03-23T09:43:22;0.65;;;0.17;;
71095;SDS011;58753;49.440;11.126;2024-03-23T09:45:47;0.40;;;0.10;;
71095;SDS011;58753;49.440;11.126;2024-03-23T09:48:14;0.30;;;0.20;;
71095;SDS011;58753;49.440;11.126;2024-03-23T09:50:40;0.30;;;0.10;;
71095;SDS011;58753;49.440;11.126;2024-03-23T09:53:13;0.63;;;0.30;;
71095;SDS011;58753;49.440;11.126;2024-03-23T09:55:39;0.40;;;0.20;;
71095;SDS011;58753;49.440;11.126;2024-03-23T09:58:06;0.55;;;0.20;;
71095;SDS011;58753;49.440;11.126;2024-03-23T10:00:33;0.30;;;0.13;;
71095;SDS011;58753;49.440;11.126;2024-03-23T10:03:00;0.20;;;0.10;;
71095;SDS011;58753;49.440;11.126;2024-03-23T10:05:30;0.60;;;0.20;;
71095;SDS011;58753;49.440;11.126;2024-03-23T10:07:59;0.40;;;0.10;;
71095;SDS011;58753;49.440;11.126;2024-03-23T10:10:42;0.30;;;0.10;;
71095;SDS011;58753;49.440;11.126;2024-03-23T10:13:08;0.43;;;0.20;;
71095;SDS011;58753;49.440;11.126;2024-03-23T10:15:34;0.50;;;0.10;;
71095;SDS011;58753;49.440;11.126;2024-03-23T10:18:17;0.30;;;0.10;;
71095;SDS011;58753;49.440;11.126;2024-03-23T10:20:43;0.30;;;0.13;;
71095;SDS011;58753;49.440;11.126;2024-03-23T10:23:15;0.67;;;0.20;;
71095;SDS011;58753;49.440;11.126;2024-03-23T10:25:41;0.30;;;0.13;;
71095;SDS011;58753;49.440;11.126;2024-03-23T10:28:07;0.30;;;0.20;;
71095;SDS011;58753;49.440;11.126;2024-03-23T10:30:33;0.30;;;0.20;;
71095;SDS011;58753;49.440;11.126;2024-03-23T10:33:08;0.87;;;0.20;;
71095;SDS011;58753;49.440;11.126;2024-03-23T10:35:36;0.60;;;0.20;;
71095;SDS011;58753;49.440;11.126;2024-03-23T10:38:04;0.20;;;0.10;;
71095;SDS011;58753;49.440;11.126;2024-03-23T10:40:31;0.43;;;0.20;;
71095;SDS011;58753;49.440;11.126;2024-03-23T10:42:57;0.73;;;0.20;;
71095;SDS011;58753;49.440;11.126;2024-03-23T10:45:23;0.50;;;0.20;;
71095;SDS011;58753;49.440;11.126;2024-03-23T10:47:49;4.10;;;0.50;;
71095;SDS011;58753;49.440;11.126;2024-03-23T10:50:14;0.60;;;0.30;;
71095;SDS011;58753;49.440;11.126;2024-03-23T10:52:40;0.60;;;0.20;;
71095;SDS011;58753;49.440;11.126;2024-03-23T10:55:10;0.70;;;0.20;;
71095;SDS011;58753;49.440;11.126;2024-03-23T10:57:38;0.40;;;0.20;;
71095;SDS011;58753;49.440;11.126;2024-03-23T11:00:06;0.60;;;0.40;;
71095;SDS011;58753;49.440;11.126;2024-03-23T11:02:33;0.30;;;0.10;;
71095;SDS011;58753;49.440;11.126;2024-03-23T11:04:59;0.95;;;0.25;;
71095;SDS011;58753;49.440;11.126;2024-03-23T11:09:53;1.20;;;0.40;;
71095;SDS011;58753;49.440;11.126;2024-03-23T11:14:45;1.37;;;0.40;;
71095;SDS011;58753;49.440;11.126;2024-03-23T11:17:10;1.13;;;0.57;;
71095;SDS011;58753;49.440;11.126;2024-03-23T11:19:36;1.13;;;0.60;;
71095;SDS011;58753;49.440;11.126;2024-03-23T11:22:02;0.65;;;0.28;;
71095;SDS011;58753;49.440;11.126;2024-03-23T11:24:28;0.60;;;0.40;;
71095;SDS011;58753;49.440;11.126;2024-03-23T11:26:54;0.90;;;0.40;;
71095;SDS011;58753;49.440;11.126;2024-03-23T11:29:19;1.50;;;0.60;;
71095;SDS011;58753;49.440;11.126;2024-03-23T11:31:48;2.22;;;0.60;;
71095;SDS011;58753;49.440;11.126;2024-03-23T11:34:15;0.77;;;0.33;;
71095;SDS011;58753;49.440;11.126;2024-03-23T11:36:41;1.48;;;0.32;;
71095;SDS011;58753;49.440;11.126;2024-03-23T11:39:16;0.80;;;0.43;;
71095;SDS011;58753;49.440;11.126;2024-03-23T11:41:48;0.98;;;0.40;;
71095;SDS011;58753;49.440;11.126;2024-03-23T11:44:16;0.50;;;0.20;;
71095;SDS011;58753;49.440;11.126;2024-03-23T11:46:46;0.90;;;0.43;;
71095;SDS011;58753;49.440;11.126;2024-03-23T11:49:24;1.35;;;0.73;;
71095;SDS011;58753;49.440;11.126;2024-03-23T11:51:52;0.65;;;0.40;;
71095;SDS011;58753;49.440;11.126;2024-03-23T11:54:22;1.40;;;0.55;;
71095;SDS011;58753;49.440;11.126;2024-03-23T11:56:59;0.90;;;0.77;;
71095;SDS011;58753;49.440;11.126;2024-03-23T11:59:38;1.40;;;0.93;;
71095;SDS011;58753;49.440;11.126;2024-03-23T12:02:11;2.80;;;0.98;;
71095;SDS011;58753;49.440;11.126;2024-03-23T12:04:40;1.98;;;0.73;;
71095;SDS011;58753;49.440;11.126;2024-03-23T12:07:17;1.17;;;0.50;;
71095;SDS011;58753;49.440;11.126;2024-03-23T12:09:44;1.13;;;0.55;;
71095;SDS011;58753;49.440;11.126;2024-03-23T12:12:14;1.57;;;0.80;;
71095;SDS011;58753;49.440;11.126;2024-03-23T12:15:01;1.58;;;0.52;;
71095;SDS011;58753;49.440;11.126;2024-03-23T12:17:28;1.67;;;0.82;;
71095;SDS011;58753;49.440;11.126;2024-03-23T12:19:53;5.13;;;0.63;;
71095;SDS011;58753;49.440;11.126;2024-03-23T12:22:22;1.40;;;0.70;;
71095;SDS011;58753;49.440;11.126;2024-03-23T12:24:48;1.53;;;0.70;;
71095;SDS011;58753;49.440;11.126;2024-03-23T12:27:14;2.33;;;1.08;;
71095;SDS011;58753;49.440;11.126;2024-03-23T12:29:41;1.92;;;0.40;;
71095;SDS011;58753;49.440;11.126;2024-03-23T12:32:11;4.05;;;1.52;;
71095;SDS011;58753;49.440;11.126;2024-03-23T12:34:37;1.20;;;0.90;;
71095;SDS011;58753;49.440;11.126;2024-03-23T12:37:02;4.00;;;1.35;;
71095;SDS011;58753;49.440;11.126;2024-03-23T12:39:28;1.70;;;0.90;;
71095;SDS011;58753;49.440;11.126;2024-03-23T12:41:53;1.33;;;0.90;;
71095;SDS011;58753;49.440;11.126;2024-03-23T12:44:18;1.50;;;0.85;;
71095;SDS011;58753;49.440;11.126;2024-03-23T12:46:44;4.10;;;1.17;;
71095;SDS011;58753;49.440;11.126;2024-03-23T12:49:10;1.57;;;0.80;;
71095;SDS011;58753;49.440;11.126;2024-03-23T12:51:36;1.40;;;0.60;;
71095;SDS011;58753;49.440;11.126;2024-03-23T12:54:01;1.45;;;0.65;;
71095;SDS011;58753;49.440;11.126;2024-03-23T12:56:27;1.03;;;0.50;;
71095;SDS011;58753;49.440;11.126;2024-03-23T12:58:55;1.90;;;1.00;;
71095;SDS011;58753;49.440;11.126;2024-03-23T13:01:25;1.42;;;0.65;;
71095;SDS011;58753;49.440;11.126;2024-03-23T13:03:51;2.38;;;0.50;;
71095;SDS011;58753;49.440;11.126;2024-03-23T13:06:17;1.77;;;0.33;;
71095;SDS011;58753;49.440;11.126;2024-03-23T13:08:46;2.88;;;0.80;;
71095;SDS011;58753;49.440;11.126;2024-03-23T13:11:12;2.97;;;0.93;;
71095;SDS011;58753;49.440;11.126;2024-03-23T13:13:39;2.53;;;0.80;;
71095;SDS011;58753;49.440;11.126;2024-03-23T13:16:04;1.35;;;0.75;;
71095;SDS011;58753;49.440;11.126;2024-03-23T13:18:30;1.63;;;0.75;;
71095;SDS011;58753;49.440;11.126;2024-03-23T13:20:57;5.22;;;1.10;;
71095;SDS011;58753;49.440;11.126;2024-03-23T13:23:22;2.00;;;0.93;;
71095;SDS011;58753;49.440;11.126;2024-03-23T13:25:51;1.57;;;0.63;;
71095;SDS011;58753;49.440;11.126;2024-03-23T13:28:23;1.27;;;0.47;;
71095;SDS011;58753;49.440;11.126;2024-03-23T13:30:55;3.90;;;0.77;;
71095;SDS011;58753;49.440;11.126;2024-03-23T13:33:21;3.97;;;0.57;;
71095;SDS011;58753;49.440;11.126;2024-03-23T13:38:16;0.60;;;0.47;;
71095;SDS011;58753;49.440;11.126;2024-03-23T13:40:51;1.33;;;1.03;;
71095;SDS011;58753;49.440;11.126;2024-03-23T13:43:21;6.25;;;1.00;;
71095;SDS011;58753;49.440;11.126;2024-03-23T13:45:47;1.80;;;1.05;;
71095;SDS011;58753;49.440;11.126;2024-03-23T13:48:14;1.80;;;0.90;;
71095;SDS011;58753;49.440;11.126;2024-03-23T13:50:40;1.73;;;1.10;;
71095;SDS011;58753;49.440;11.126;2024-03-23T13:53:05;1.65;;;1.25;;
71095;SDS011;58753;49.440;11.126;2024-03-23T13:55:31;2.67;;;0.60;;
71095;SDS011;58753;49.440;11.126;2024-03-23T13:57:57;0.90;;;0.73;;
71095;SDS011;58753;49.440;11.126;2024-03-23T14:00:23;1.70;;;1.07;;
71095;SDS011;58753;49.440;11.126;2024-03-23T14:02:48;1.55;;;0.57;;
71095;SDS011;58753;49.440;11.126;2024-03-23T14:05:14;2.03;;;0.80;;
71095;SDS011;58753;49.440;11.126;2024-03-23T14:07:39;1.52;;;0.90;;
71095;SDS011;58753;49.440;11.126;2024-03-23T14:10:05;2.77;;;1.00;;
71095;SDS011;58753;49.440;11.126;2024-03-23T14:12:35;3.63;;;0.88;;
71095;SDS011;58753;49.440;11.126;2024-03-23T14:15:01;4.87;;;1.33;;
71095;SDS011;58753;49.440;11.126;2024-03-23T14:17:27;1.65;;;0.80;;
71095;SDS011;58753;49.440;11.126;2024-03-23T14:19:53;2.50;;;0.80;;
71095;SDS011;58753;49.440;11.126;2024-03-23T14:22:18;4.27;;;1.10;;
71095;SDS011;58753;49.440;11.126;2024-03-23T14:24:46;3.20;;;0.85;;
71095;SDS011;58753;49.440;11.126;2024-03-23T14:27:12;1.87;;;0.60;;
71095;SDS011;58753;49.440;11.126;2024-03-23T14:29:37;1.77;;;0.63;;
71095;SDS011;58753;49.440;11.126;2024-03-23T14:32:02;2.90;;;0.87;;
71095;SDS011;58753;49.440;11.126;2024-03-23T14:34:28;0.80;;;0.47;;
71095;SDS011;58753;49.440;11.126;2024-03-23T14:36:53;2.50;;;0.98;;
71095;SDS011;58753;49.440;11.126;2024-03-23T14:39:22;0.70;;;0.30;;
71095;SDS011;58753;49.440;11.126;2024-03-23T14:41:49;0.90;;;0.45;;
71095;SDS011;58753;49.440;11.126;2024-03-23T14:44:15;2.33;;;0.85;;
71095;SDS011;58753;49.440;11.126;2024-03-23T14:46:41;1.10;;;0.43;;
71095;SDS011;58753;49.440;11.126;2024-03-23T14:49:06;1.10;;;0.40;;
71095;SDS011;58753;49.440;11.126;2024-03-23T14:51:32;2.58;;;0.52;;
71095;SDS011;58753;49.440;11.126;2024-03-23T14:53:58;3.85;;;0.52;;
71095;SDS011;58753;49.440;11.126;2024-03-23T14:56:24;0.70;;;0.40;;
71095;SDS011;58753;49.440;11.126;2024-03-23T14:58:52;1.60;;;0.57;;
71095;SDS011;58753;49.440;11.126;2024-03-23T15:01:17;0.60;;;0.28;;
71095;SDS011;58753;49.440;11.126;2024-03-23T15:03:44;3.17;;;1.48;;
71095;SDS011;58753;49.440;11.126;2024-03-23T15:06:09;0.60;;;0.30;;
71095;SDS011;58753;49.440;11.126;2024-03-23T15:08:35;1.63;;;1.00;;
71095;SDS011;58753;49.440;11.126;2024-03-23T15:11:05;4.13;;;0.40;;
71095;SDS011;58753;49.440;11.126;2024-03-23T15:13:34;1.03;;;0.80;;
71095;SDS011;58753;49.440;11.126;2024-03-23T15:16:00;2.15;;;0.50;;
71095;SDS011;58753;49.440;11.126;2024-03-23T15:18:28;0.65;;;0.43;;
71095;SDS011;58753;49.440;11.126;2024-03-23T15:20:55;21.63;;;1.85;;
71095;SDS011;58753;49.440;11.126;2024-03-23T15:23:21;0.50;;;0.30;;
71095;SDS011;58753;49.440;11.126;2024-03-23T15:25:53;2.47;;;1.00;;
71095;SDS011;58753;49.440;11.126;2024-03-23T15:28:26;0.85;;;0.47;;
71095;SDS011;58753;49.440;11.126;2024-03-23T15:31:02;1.08;;;0.57;;
71095;SDS011;58753;49.440;11.126;2024-03-23T15:33:28;3.10;;;1.10;;
71095;SDS011;58753;49.440;11.126;2024-03-23T15:35:54;1.45;;;0.85;;